Time;durP1;ratioP1;P1;durP2;ratioP2;P2;SDS_P1;SDS_P2;PMS_P1;PMS_P2;Temp;Humidity;BMP_temperature;BMP_pressure;BME280_temperature;BME280_humidity;BME280_pressure;Samples;Min_cycle;Max_cycle;Signal;HPM_P1;HPM_P2
2021/08/20 00:02:18;;;;;;;10.40;7.40;;;;;;;18.32;60.96;100277.33;117324;1183;23497;-64
2021/08/20 00:04:47;;;;;;;10.60;7.20;;;;;;;18.27;61.00;100273.29;117374;1182;21855;-64
2021/08/20 00:07:15;;;;;;;11.50;7.80;;;;;;;18.20;61.18;100270.04;117454;1182;23474;-64
2021/08/20 00:09:44;;;;;;;12.60;7.30;;;;;;;18.14;61.49;100275.45;117352;1185;23651;-59
2021/08/20 00:12:13;;;;;;;9.90;7.20;;;;;;;18.12;61.61;100276.61;117406;1185;23539;-58
2021/08/20 00:14:41;;;;;;;12.10;7.90;;;;;;;18.13;61.60;100276.40;117450;1183;21855;-64
2021/08/20 00:17:10;;;;;;;13.60;7.50;;;;;;;18.19;61.53;100272.36;117383;1183;23449;-59
2021/08/20 00:19:40;;;;;;;12.70;7.40;;;;;;;18.20;61.40;100270.38;117426;1182;21854;-66
2021/08/20 00:22:09;;;;;;;13.10;8.00;;;;;;;18.21;61.45;100272.30;117370;1183;22718;-59
2021/08/20 00:24:37;;;;;;;12.30;8.40;;;;;;;18.20;61.49;100270.20;117338;1186;23017;-64
2021/08/20 00:27:05;;;;;;;8.40;7.10;;;;;;;18.19;61.58;100273.09;117431;1184;21853;-64
2021/08/20 00:29:54;;;;;;;11.40;8.30;;;;;;;18.23;61.52;100271.86;117442;1185;21861;-59
2021/08/20 00:32:22;;;;;;;12.80;8.40;;;;;;;18.25;61.56;100272.28;117508;1179;21988;-65
2021/08/20 00:35:10;;;;;;;12.20;8.50;;;;;;;18.29;61.55;100271.23;117353;1185;22944;-59
2021/08/20 00:37:38;;;;;;;11.80;7.80;;;;;;;18.32;61.55;100270.58;117410;1186;21863;-59
2021/08/20 00:40:07;;;;;;;12.70;7.50;;;;;;;18.35;61.46;100271.48;117378;1186;21863;-64
2021/08/20 00:42:36;;;;;;;11.80;7.00;;;;;;;18.42;61.36;100270.23;117445;1182;21895;-58
2021/08/20 00:45:05;;;;;;;10.20;7.50;;;;;;;18.44;61.39;100269.29;117492;1185;23451;-57
2021/08/20 00:47:34;;;;;;;12.00;8.10;;;;;;;18.47;61.37;100271.27;117438;1182;23935;-64
2021/08/20 00:50:04;;;;;;;12.20;7.90;;;;;;;18.50;61.33;100274.48;117324;1183;21857;-57
2021/08/20 00:52:33;;;;;;;12.00;7.70;;;;;;;18.53;61.30;100274.04;117487;1184;21858;-60
2021/08/20 00:55:03;;;;;;;9.50;7.50;;;;;;;18.57;61.19;100273.63;117384;1182;22628;-60
2021/08/20 00:57:52;;;;;;;;;;;;;;;18.56;61.09;100274.73;117315;1189;21845;-60
2021/08/20 01:00:22;;;;;;;11.50;8.10;;;;;;;18.59;60.95;100277.30;117395;1185;23488;-59
2021/08/20 01:02:50;;;;;;;11.80;7.40;;;;;;;18.59;61.01;100277.65;117483;1182;22937;-59
2021/08/20 01:05:19;;;;;;;11.90;7.60;;;;;;;18.60;60.91;100276.00;117513;1183;24161;-66
2021/08/20 01:07:48;;;;;;;13.60;8.20;;;;;;;18.62;60.93;100275.89;117392;1182;23567;-65
2021/08/20 01:10:16;;;;;;;13.00;8.40;;;;;;;18.65;60.93;100274.86;117407;1183;22934;-59
2021/08/20 01:13:04;;;;;;;11.70;8.10;;;;;;;18.66;60.87;100272.85;117447;1186;21863;-59
2021/08/20 01:15:32;;;;;;;15.00;8.50;;;;;;;18.70;60.83;100273.58;117345;1185;21854;-60
2021/08/20 01:18:01;;;;;;;15.90;8.90;;;;;;;18.75;60.77;100275.10;117465;1183;21845;-65
2021/08/20 01:20:50;;;;;;;13.90;7.80;;;;;;;18.82;60.54;100270.52;117317;1184;22969;-60
2021/08/20 01:23:37;;;;;;;12.50;8.10;;;;;;;18.90;60.63;100273.31;117455;1185;21860;-60
2021/08/20 01:26:06;;;;;;;15.50;9.30;;;;;;;18.96;60.53;100270.05;117312;1183;23634;-66
2021/08/20 01:28:34;;;;;;;13.60;9.00;;;;;;;19.01;60.41;100269.27;117330;1182;21857;-66
2021/08/20 01:31:22;;;;;;;12.40;8.30;;;;;;;19.06;60.11;100268.48;117407;1179;21956;-63
2021/08/20 01:33:52;;;;;;;15.90;8.30;;;;;;;19.07;60.04;100268.42;117443;1185;24162;-63
2021/08/20 01:36:40;;;;;;;13.50;8.30;;;;;;;19.10;59.91;100270.77;117409;1185;21930;-61
2021/08/20 01:39:15;;;;;;;13.00;7.80;;;;;;;19.11;59.62;100267.17;117374;1182;23529;-60
2021/08/20 01:41:43;;;;;;;12.90;8.10;;;;;;;19.10;59.44;100264.56;117547;1182;22027;-60
2021/08/20 01:44:11;;;;;;;13.20;8.00;;;;;;;19.09;59.50;100265.13;117331;1182;21855;-66
2021/08/20 01:46:40;;;;;;;15.20;7.30;;;;;;;19.03;59.49;100264.00;117381;1186;24624;-60
2021/08/20 01:49:10;;;;;;;13.30;8.40;;;;;;;19.04;59.58;100268.60;117387;1183;23471;-61
2021/08/20 01:51:58;;;;;;;14.50;8.20;;;;;;;19.05;59.50;100268.71;117403;1182;23452;-66
2021/08/20 01:54:26;;;;;;;10.50;7.80;;;;;;;19.08;59.32;100269.10;117436;1182;21845;-62
2021/08/20 01:56:56;;;;;;;11.70;7.40;;;;;;;19.06;59.32;100267.41;117385;1185;21911;-67
2021/08/20 01:59:27;;;;;;;12.30;7.70;;;;;;;19.20;58.93;100264.41;117406;1179;23452;-62
2021/08/20 02:01:56;;;;;;;12.20;8.10;;;;;;;19.25;58.77;100258.83;117429;1183;21879;-62
2021/08/20 02:04:26;;;;;;;13.80;7.60;;;;;;;19.20;58.77;100261.96;117442;1182;22625;-66
2021/08/20 02:06:55;;;;;;;;;;;;;;;19.20;58.90;100263.56;117462;1182;22923;-66
2021/08/20 02:09:23;;;;;;;11.90;7.30;;;;;;;19.22;58.72;100261.66;117482;1185;21867;-67
2021/08/20 02:11:52;;;;;;;11.20;6.90;;;;;;;19.25;58.72;100259.90;117412;1185;21857;-66
2021/08/20 02:14:20;;;;;;;9.80;7.40;;;;;;;19.28;58.54;100257.23;117421;1183;23451;-61
2021/08/20 02:16:50;;;;;;;12.40;7.70;;;;;;;19.24;58.80;100256.23;117337;1185;21891;-61
2021/08/20 02:19:19;;;;;;;10.70;7.10;;;;;;;19.18;58.95;100254.05;117428;1185;21855;-65
2021/08/20 02:21:47;;;;;;;11.60;7.50;;;;;;;19.14;59.12;100250.12;117455;1182;23448;-66
2021/08/20 02:24:15;;;;;;;11.30;7.50;;;;;;;19.26;58.82;100250.79;117418;1182;21976;-61
2021/08/20 02:26:52;;;;;;;12.40;7.90;;;;;;;19.21;59.01;100253.69;117397;1176;23475;-66
2021/08/20 02:29:40;;;;;;;10.50;7.70;;;;;;;19.26;59.03;100253.80;117386;1186;21854;-61
2021/08/20 02:32:10;;;;;;;11.30;7.60;;;;;;;19.35;58.77;100256.02;117337;1183;23529;-67
2021/08/20 02:34:38;;;;;;;11.20;8.10;;;;;;;19.30;58.93;100257.16;117489;1185;23452;-59
2021/08/20 02:37:06;;;;;;;12.80;7.20;;;;;;;19.29;58.74;100261.98;117523;1185;23471;-65
2021/08/20 02:39:52;;;;;;;12.10;7.30;;;;;;;19.42;58.51;100267.92;117680;1184;23539;-59
2021/08/20 02:42:21;;;;;;;10.90;7.10;;;;;;;19.41;58.48;100272.98;117402;1183;23452;-59
2021/08/20 02:44:49;;;;;;;11.90;7.40;;;;;;;19.40;58.66;100273.55;117376;1184;23244;-63
2021/08/20 02:47:17;;;;;;;10.10;7.00;;;;;;;19.41;58.64;100272.48;117408;1185;23474;-65
2021/08/20 02:49:45;;;;;;;9.40;6.90;;;;;;;19.40;58.57;100273.59;117466;1185;21868;-58
2021/08/20 02:52:14;;;;;;;10.20;7.20;;;;;;;19.39;58.61;100274.35;117352;1184;23474;-65
2021/08/20 02:54:42;;;;;;;10.00;7.10;;;;;;;19.48;58.26;100275.82;117355;1185;23561;-58
2021/08/20 02:57:10;;;;;;;11.00;7.80;;;;;;;19.46;58.38;100279.11;117338;1185;21854;-65
2021/08/20 02:59:39;;;;;;;10.20;7.20;;;;;;;19.40;58.50;100280.14;117337;1183;23451;-59
2021/08/20 03:02:07;;;;;;;10.90;6.90;;;;;;;19.37;58.54;100280.50;117335;1185;21934;-59
2021/08/20 03:04:36;;;;;;;13.90;8.30;;;;;;;19.39;58.39;100287.50;117435;1179;21860;-65
2021/08/20 03:07:05;;;;;;;9.10;7.00;;;;;;;19.34;58.44;100291.30;117389;1183;21842;-65
2021/08/20 03:09:34;;;;;;;13.30;7.40;;;;;;;19.38;58.39;100284.73;117519;1183;23515;-58
2021/08/20 03:12:03;;;;;;;10.70;7.10;;;;;;;19.33;58.41;100286.19;117428;1182;21832;-64
2021/08/20 03:14:34;;;;;;;11.50;7.00;;;;;;;19.29;58.54;100287.96;117467;1186;23445;-58
2021/08/20 03:17:02;;;;;;;10.30;6.70;;;;;;;19.37;58.35;100285.82;117350;1186;21960;-58
2021/08/20 03:19:50;;;;;;;12.20;6.70;;;;;;;19.40;58.25;100287.96;117296;1184;22934;-64
2021/08/20 03:22:19;;;;;;;9.40;5.90;;;;;;;19.43;58.09;100287.48;117432;1187;21901;-64
2021/08/20 03:24:47;;;;;;;8.50;6.20;;;;;;;19.45;58.07;100288.45;117402;1182;21855;-58
2021/08/20 03:27:15;;;;;;;9.90;6.00;;;;;;;19.46;57.97;100289.47;117375;1182;21854;-57
2021/08/20 03:29:43;;;;;;;9.90;6.60;;;;;;;19.45;57.96;100289.30;117453;1186;21857;-57
2021/08/20 03:32:12;;;;;;;8.70;6.00;;;;;;;19.45;57.99;100294.46;117455;1183;21860;-59
2021/08/20 03:35:00;;;;;;;9.20;6.10;;;;;;;19.45;57.91;100297.83;117417;1183;22967;-65
2021/08/20 03:37:28;;;;;;;8.40;5.90;;;;;;;19.48;57.83;100301.09;117427;1185;21858;-59
2021/08/20 03:39:56;;;;;;;12.00;6.50;;;;;;;19.48;57.82;100301.09;117484;1182;23480;-64
2021/08/20 03:42:25;;;;;;;9.00;6.30;;;;;;;19.50;57.82;100301.36;117432;1185;23470;-56
2021/08/20 03:44:53;;;;;;;7.90;5.60;;;;;;;19.55;57.73;100302.36;117417;1182;21845;-56
2021/08/20 03:47:21;;;;;;;7.10;5.50;;;;;;;19.59;57.76;100305.16;117560;1183;23448;-64
2021/08/20 03:49:49;;;;;;;10.10;6.40;;;;;;;19.61;57.74;100304.70;117503;1183;21857;-64
2021/08/20 03:52:37;;;;;;;9.20;6.20;;;;;;;19.56;57.81;100308.51;117321;1186;21857;-57
2021/08/20 03:55:08;;;;;;;9.10;6.80;;;;;;;19.51;57.99;100309.50;117359;1184;21863;-57
2021/08/20 03:57:36;;;;;;;12.00;6.20;;;;;;;19.53;57.97;100306.55;117503;1182;23459;-64
2021/08/20 04:00:06;;;;;;;8.80;5.70;;;;;;;19.53;57.94;100307.45;117456;1184;21866;-63
2021/08/20 04:02:46;;;;;;;9.10;6.40;;;;;;;19.52;58.03;100307.48;117371;1186;21889;-55
2021/08/20 04:05:14;;;;;;;9.20;6.10;;;;;;;19.51;57.98;100305.73;117465;1182;21865;-59
2021/08/20 04:07:43;;;;;;;9.50;6.10;;;;;;;19.50;58.11;100304.94;117438;1183;23449;-54
2021/08/20 04:10:14;;;;;;;8.50;5.90;;;;;;;19.49;57.94;100308.33;117372;1185;21862;-55
2021/08/20 04:12:44;;;;;;;8.60;5.90;;;;;;;19.51;57.94;100310.40;117354;1186;21868;-62
2021/08/20 04:15:13;;;;;;;8.80;6.00;;;;;;;19.53;57.81;100310.27;117506;1183;23613;-56
2021/08/20 04:17:41;;;;;;;7.80;5.80;;;;;;;19.55;57.78;100311.94;117419;1182;22996;-62
2021/08/20 04:20:10;;;;;;;7.40;5.30;;;;;;;19.58;57.81;100310.21;117442;1185;23471;-62
2021/08/20 04:22:59;;;;;;;10.20;5.90;;;;;;;19.65;57.77;100311.63;117417;1184;21857;-56
2021/08/20 04:25:28;;;;;;;9.00;5.80;;;;;;;19.70;57.72;100305.68;117438;1185;23471;-57
2021/08/20 04:27:57;;;;;;;8.70;5.50;;;;;;;19.75;57.60;100304.86;117425;1182;21857;-57
2021/08/20 04:30:29;;;;;;;9.10;5.90;;;;;;;19.83;57.39;100303.44;117333;1185;22630;-57
2021/08/20 04:32:58;;;;;;;9.20;5.60;;;;;;;19.88;57.24;100303.54;117455;1183;24268;-64
2021/08/20 04:35:27;;;;;;;9.10;5.30;;;;;;;19.94;57.22;100303.23;117506;1186;21856;-59
2021/08/20 04:37:55;;;;;;;9.80;5.60;;;;;;;20.02;57.11;100301.91;117404;1184;21845;-68
2021/08/20 04:40:24;;;;;;;8.30;5.50;;;;;;;20.19;56.98;100302.27;118510;1183;23127;-62
2021/08/20 04:42:52;;;;;;;7.80;5.40;;;;;;;20.33;56.71;100301.68;117313;1184;21854;-61
2021/08/20 04:45:35;;;;;;;8.60;5.00;;;;;;;20.48;56.40;100302.87;117372;1185;21895;-68
2021/08/20 04:48:04;;;;;;;7.00;5.30;;;;;;;20.62;56.25;100301.16;117395;1182;23485;-61
2021/08/20 04:50:32;;;;;;;8.10;5.50;;;;;;;20.74;56.01;100303.93;117423;1183;23474;-68
2021/08/20 04:53:00;;;;;;;8.50;5.00;;;;;;;20.84;55.79;100303.39;117447;1186;23475;-59
2021/08/20 04:55:28;;;;;;;7.70;5.20;;;;;;;20.93;55.70;100305.72;117327;1183;23635;-75
2021/08/20 04:57:57;;;;;;;13.20;5.10;;;;;;;21.07;55.38;100306.39;117355;1184;23459;-66
2021/08/20 05:00:25;;;;;;;8.30;4.70;;;;;;;21.32;54.75;100304.36;117347;1182;21847;-60
2021/08/20 05:02:53;;;;;;;8.90;5.30;;;;;;;21.56;54.18;100305.45;117394;1183;24169;-66
2021/08/20 05:05:24;;;;;;;7.80;5.10;;;;;;;21.64;53.99;100304.67;117414;1183;23637;-67
2021/08/20 05:07:52;;;;;;;8.90;5.20;;;;;;;21.73;53.90;100302.73;117452;1183;21852;-62
2021/08/20 05:10:20;;;;;;;6.90;4.50;;;;;;;21.85;53.58;100291.11;117520;1183;21854;-61
2021/08/20 05:12:48;;;;;;;9.70;4.50;;;;;;;22.02;53.44;100293.85;117306;1186;23466;-69
2021/08/20 05:15:37;;;;;;;7.30;5.10;;;;;;;22.18;53.13;100294.64;117348;1186;21867;-68
2021/08/20 05:18:06;;;;;;;10.20;5.00;;;;;;;22.36;52.92;100294.02;117375;1186;23467;-63
2021/08/20 05:20:34;;;;;;;24.80;19.90;;;;;;;22.54;52.59;100291.54;117358;1183;22715;-63
2021/08/20 05:23:02;;;;;;;18.10;9.60;;;;;;;22.69;52.06;100290.58;117332;1183;21865;-69
2021/08/20 05:25:33;;;;;;;40.90;34.00;;;;;;;22.84;51.40;100286.02;117373;1186;23306;-71
2021/08/20 05:28:03;;;;;;;15.30;11.90;;;;;;;23.00;51.20;100291.09;117428;1182;21868;-68
2021/08/20 05:30:31;;;;;;;20.70;11.10;;;;;;;23.26;50.72;100292.42;117463;1182;21902;-60
2021/08/20 05:33:00;;;;;;;14.00;8.10;;;;;;;23.44;50.39;100295.73;117521;1184;21857;-60
2021/08/20 05:35:28;;;;;;;21.40;9.40;;;;;;;23.60;49.82;100297.14;117420;1186;22339;-61
2021/08/20 05:37:56;;;;;;;11.80;6.00;;;;;;;23.79;49.23;100297.83;117456;1181;21845;-67
2021/08/20 05:40:26;;;;;;;10.70;6.50;;;;;;;23.91;49.12;100298.95;117358;1185;24149;-70
2021/08/20 05:42:59;;;;;;;11.60;6.50;;;;;;;24.05;48.80;100300.20;117368;1184;21866;-68
2021/08/20 05:45:27;;;;;;;7.60;5.70;;;;;;;24.16;48.52;100303.34;117465;1185;21854;-70
2021/08/20 05:47:55;;;;;;;9.00;5.10;;;;;;;24.36;48.11;100306.77;117474;1182;24176;-68
2021/08/20 05:50:24;;;;;;;8.40;4.70;;;;;;;24.60;47.59;100307.78;117372;1184;24171;-63
2021/08/20 05:52:52;;;;;;;6.40;4.50;;;;;;;24.68;47.62;100305.73;117381;1182;21857;-70
2021/08/20 05:55:21;;;;;;;6.50;4.10;;;;;;;24.82;47.65;100308.17;117323;1183;22323;-71
2021/08/20 05:57:50;;;;;;;7.30;4.00;;;;;;;24.97;46.94;100306.51;117431;1182;23579;-74
2021/08/20 06:00:18;;;;;;;11.00;4.90;;;;;;;25.07;46.41;100303.30;117480;1182;21858;-61
2021/08/20 06:02:47;;;;;;;18.40;4.80;;;;;;;25.18;46.23;100301.96;117237;1183;23092;-62
2021/08/20 06:05:16;;;;;;;6.30;3.80;;;;;;;25.26;46.06;100302.44;117644;1183;23452;-63
2021/08/20 06:07:44;;;;;;;8.80;4.00;;;;;;;25.35;45.90;100301.60;118700;1183;21861;-70
2021/08/20 06:10:13;;;;;;;6.10;3.80;;;;;;;25.48;45.74;100296.09;117547;1184;23503;-61
2021/08/20 06:12:41;;;;;;;5.30;3.80;;;;;;;25.72;45.27;100292.11;117437;1185;23475;-62
2021/08/20 06:15:10;;;;;;;4.50;3.50;;;;;;;25.83;44.51;100289.14;117500;1182;23448;-63
2021/08/20 06:17:38;;;;;;;5.40;4.00;;;;;;;25.99;44.48;100288.61;117406;1182;21846;-62
2021/08/20 06:20:26;;;;;;;5.80;3.60;;;;;;;26.22;44.09;100287.33;117348;1185;21977;-60
2021/08/20 06:22:59;;;;;;;6.60;3.80;;;;;;;26.36;43.69;100283.18;117524;1185;23449;-67
2021/08/20 06:25:28;;;;;;;7.30;4.10;;;;;;;26.43;43.48;100284.27;117548;1184;21854;-60
2021/08/20 06:27:56;;;;;;;7.80;3.60;;;;;;;26.49;43.26;100287.73;117427;1182;21845;-69
2021/08/20 06:30:24;;;;;;;5.00;3.50;;;;;;;26.55;42.93;100291.02;117570;1183;21854;-66
2021/08/20 06:32:53;;;;;;;8.40;4.20;;;;;;;26.55;42.83;100287.43;117479;1182;23452;-66
2021/08/20 06:35:22;;;;;;;6.20;4.00;;;;;;;26.69;42.64;100288.61;117418;1185;23474;-68
2021/08/20 06:37:50;;;;;;;6.60;3.30;;;;;;;26.79;42.60;100289.25;117375;1186;23468;-65
2021/08/20 06:40:19;;;;;;;5.10;3.30;;;;;;;26.90;42.20;100289.90;117462;1184;23354;-59
2021/08/20 06:42:47;;;;;;;5.80;3.80;;;;;;;27.03;42.01;100288.41;117474;1183;23462;-61
2021/08/20 06:45:16;;;;;;;7.40;3.50;;;;;;;27.20;41.48;100289.00;117423;1185;23475;-68
2021/08/20 06:47:44;;;;;;;6.70;3.80;;;;;;;27.35;40.67;100286.30;117395;1182;21857;-67
2021/08/20 06:50:12;;;;;;;5.00;3.40;;;;;;;27.39;40.89;100284.86;117483;1186;23448;-67
2021/08/20 06:52:41;;;;;;;6.00;3.10;;;;;;;27.49;40.73;100283.19;117368;1182;21860;-69
2021/08/20 06:55:12;;;;;;;4.90;3.30;;;;;;;27.59;40.57;100280.36;117417;1182;21871;-67
2021/08/20 06:57:40;;;;;;;6.30;3.40;;;;;;;27.70;40.36;100282.31;117422;1185;23502;-60
2021/08/20 07:00:09;;;;;;;5.60;3.00;;;;;;;27.82;39.96;100284.49;117402;1180;21849;-60
2021/08/20 07:02:44;;;;;;;6.00;3.40;;;;;;;27.99;39.42;100285.54;117419;1183;22922;-60
2021/08/20 07:05:14;;;;;;;7.70;3.50;;;;;;;28.10;39.66;100290.05;117549;1185;21901;-60
2021/08/20 07:07:42;;;;;;;5.50;3.70;;;;;;;28.11;39.46;100290.64;117422;1182;22966;-61
2021/08/20 07:10:12;;;;;;;5.20;3.70;;;;;;;28.18;39.25;100287.38;117438;1179;21822;-67
2021/08/20 07:12:51;;;;;;;5.10;3.50;;;;;;;28.34;39.13;100285.19;117437;1185;22905;-68
2021/08/20 07:15:20;;;;;;;5.00;3.60;;;;;;;28.52;38.85;100282.35;117424;1182;23475;-67
2021/08/20 07:17:48;;;;;;;5.60;4.00;;;;;;;28.62;38.52;100283.08;117325;1183;23449;-65
2021/08/20 07:20:17;;;;;;;5.20;3.90;;;;;;;28.77;38.47;100281.12;117389;1182;21854;-60
2021/08/20 07:22:45;;;;;;;4.80;3.50;;;;;;;28.88;38.38;100276.44;117485;1185;22090;-60
2021/08/20 07:25:14;;;;;;;4.60;3.60;;;;;;;29.07;38.29;100273.11;117400;1184;21876;-66
2021/08/20 07:27:42;;;;;;;7.10;4.60;;;;;;;29.14;37.96;100271.03;117509;1185;22941;-66
2021/08/20 07:30:12;;;;;;;6.90;4.00;;;;;;;29.25;37.63;100273.14;117360;1184;22978;-65
2021/08/20 07:32:44;;;;;;;7.60;3.80;;;;;;;29.32;37.58;100273.94;117504;1182;23475;-67
2021/08/20 07:35:13;;;;;;;6.70;3.80;;;;;;;29.38;36.97;100273.31;117487;1183;23475;-60
2021/08/20 07:37:43;;;;;;;6.10;4.30;;;;;;;29.41;36.99;100273.27;117528;1183;23493;-69
2021/08/20 07:40:13;;;;;;;5.60;4.00;;;;;;;29.62;36.96;100268.94;117449;1183;24267;-68
2021/08/20 07:42:42;;;;;;;5.20;3.90;;;;;;;29.68;37.14;100273.42;117473;1185;23579;-60
2021/08/20 07:45:11;;;;;;;5.20;3.60;;;;;;;29.82;36.91;100269.05;117548;1182;21855;-63
2021/08/20 07:47:47;;;;;;;4.80;3.90;;;;;;;29.97;36.26;100266.73;117476;1183;23449;-68
2021/08/20 07:50:15;;;;;;;4.90;3.60;;;;;;;30.10;35.78;100267.91;117508;1184;21852;-61
2021/08/20 07:53:03;;;;;;;5.50;3.90;;;;;;;30.24;35.14;100268.46;117479;1185;21860;-61
2021/08/20 07:55:33;;;;;;;5.90;3.80;;;;;;;30.28;35.09;100267.70;117456;1182;23465;-69
2021/08/20 07:58:02;;;;;;;5.30;3.80;;;;;;;30.32;35.14;100263.00;117472;1185;23554;-60
2021/08/20 08:00:30;;;;;;;5.70;4.50;;;;;;;30.38;35.02;100264.61;117489;1184;21860;-60
2021/08/20 08:03:00;;;;;;;5.10;3.50;;;;;;;30.49;34.84;100266.40;117488;1185;23448;-67
2021/08/20 08:05:31;;;;;;;5.90;3.90;;;;;;;30.64;34.65;100265.54;117456;1185;21892;-61
2021/08/20 08:08:00;;;;;;;6.10;4.00;;;;;;;30.79;34.38;100267.30;117440;1185;21870;-65
2021/08/20 08:10:29;;;;;;;7.70;4.00;;;;;;;30.91;33.80;100264.84;117469;1184;21852;-69
2021/08/20 08:12:57;;;;;;;6.70;4.10;;;;;;;30.94;34.06;100261.27;117447;1182;22928;-61
2021/08/20 08:15:26;;;;;;;6.60;3.80;;;;;;;31.02;33.98;100262.52;117388;1180;21881;-61
2021/08/20 08:17:55;;;;;;;5.70;4.00;;;;;;;31.05;33.76;100263.23;117391;1186;21871;-67
2021/08/20 08:20:24;;;;;;;5.40;4.10;;;;;;;31.23;33.34;100262.58;117470;1182;23576;-60
2021/08/20 08:22:53;;;;;;;5.80;3.80;;;;;;;31.37;32.46;100262.21;117366;1185;21857;-67
2021/08/20 08:25:23;;;;;;;6.50;3.70;;;;;;;31.41;32.45;100260.79;117485;1182;22934;-61
2021/08/20 08:27:55;;;;;;;5.30;3.70;;;;;;;31.54;32.84;100257.85;117392;1182;23000;-61
2021/08/20 08:30:26;;;;;;;4.90;3.60;;;;;;;31.73;32.73;100257.28;117499;1177;23664;-67
2021/08/20 08:32:57;;;;;;;5.40;3.90;;;;;;;31.89;31.92;100252.36;117484;1182;23496;-66
2021/08/20 08:35:29;;;;;;;6.80;3.50;;;;;;;31.95;31.58;100254.84;117467;1183;22645;-68
2021/08/20 08:38:09;;;;;;;6.50;3.80;;;;;;;32.06;31.40;100255.64;117327;1185;23469;-66
2021/08/20 08:40:45;;;;;;;28.80;5.30;;;;;;;32.20;31.41;100255.85;117434;1184;21959;-70
2021/08/20 08:43:13;;;;;;;9.60;4.00;;;;;;;32.24;30.78;100260.35;117434;1183;23567;-66
2021/08/20 08:45:42;;;;;;;17.80;4.60;;;;;;;32.27;31.23;100256.80;117406;1183;21857;-67
2021/08/20 08:48:12;;;;;;;7.20;3.80;;;;;;;32.37;31.24;100252.60;117462;1182;23574;-67
2021/08/20 08:50:45;;;;;;;6.60;3.90;;;;;;;32.58;30.61;100253.34;117496;1185;21849;-60
2021/08/20 08:53:13;;;;;;;5.40;3.80;;;;;;;32.63;30.16;100257.73;117465;1182;23648;-59
2021/08/20 08:55:57;;;;;;;5.40;3.70;;;;;;;32.51;30.36;100258.91;117497;1183;24235;-59
2021/08/20 08:58:26;;;;;;;10.30;3.90;;;;;;;32.49;30.33;100258.66;117465;1182;22831;-70
2021/08/20 09:00:54;;;;;;;4.40;3.40;;;;;;;32.49;29.99;100256.24;117439;1182;23566;-62
2021/08/20 09:03:24;;;;;;;9.80;3.50;;;;;;;32.54;29.86;100253.23;117443;1176;21851;-67
2021/08/20 09:05:53;;;;;;;6.90;3.50;;;;;;;32.65;29.81;100254.77;117455;1185;23484;-59
2021/08/20 09:08:23;;;;;;;7.70;3.90;;;;;;;32.93;29.07;100261.14;117389;1186;24159;-60
2021/08/20 09:10:59;;;;;;;5.60;3.30;;;;;;;33.07;29.00;100256.56;117369;1184;21857;-59
2021/08/20 09:13:30;;;;;;;6.20;3.70;;;;;;;33.12;29.04;100260.45;117458;1182;23715;-60
2021/08/20 09:16:11;;;;;;;5.40;3.60;;;;;;;33.23;29.15;100263.03;117370;1182;22322;-66
2021/08/20 09:18:41;;;;;;;4.40;3.20;;;;;;;33.26;28.95;100265.64;117411;1185;21875;-70
2021/08/20 09:21:15;;;;;;;4.20;3.20;;;;;;;33.27;28.54;100271.46;117470;1183;22969;-59
2021/08/20 09:23:45;;;;;;;4.70;3.50;;;;;;;33.25;28.54;100270.51;117466;1184;23020;-59
2021/08/20 09:26:14;;;;;;;5.50;3.70;;;;;;;33.29;28.91;100265.98;117434;1185;23448;-59
2021/08/20 09:28:42;;;;;;;5.00;3.60;;;;;;;33.27;29.13;100269.07;117432;1186;21868;-67
2021/08/20 09:31:11;;;;;;;6.90;3.80;;;;;;;33.23;28.76;100266.64;117357;1184;23452;-65
2021/08/20 09:33:42;;;;;;;6.00;4.40;;;;;;;33.22;28.80;100274.94;117470;1182;23625;-58
2021/08/20 09:36:14;;;;;;;5.20;3.80;;;;;;;33.21;28.97;100274.52;117431;1185;23554;-59
2021/08/20 09:38:50;;;;;;;4.90;3.60;;;;;;;33.34;28.61;100274.20;117349;1182;21885;-61
2021/08/20 09:41:33;;;;;;;6.20;3.50;;;;;;;33.46;28.37;100275.43;118397;1182;21855;-65
2021/08/20 09:44:07;;;;;;;7.20;3.90;;;;;;;33.57;28.35;100274.73;117465;1182;22623;-58
2021/08/20 09:46:52;;;;;;;7.50;3.10;;;;;;;33.66;27.98;100273.94;117594;1185;21854;-58
2021/08/20 09:49:21;;;;;;;6.20;3.70;;;;;;;33.77;28.00;100274.16;117491;1182;21854;-62
2021/08/20 09:51:50;;;;;;;6.90;4.10;;;;;;;33.90;27.81;100271.83;117535;1183;24165;-67
2021/08/20 09:54:23;;;;;;;5.80;3.30;;;;;;;33.95;27.56;100272.75;117554;1184;24223;-69
2021/08/20 09:57:00;;;;;;;11.60;3.30;;;;;;;33.84;27.78;100273.16;117454;1185;23468;-61
2021/08/20 09:59:30;;;;;;;6.30;3.40;;;;;;;33.87;27.45;100279.46;117557;1182;22462;-67
2021/08/20 10:02:00;;;;;;;4.40;2.80;;;;;;;33.97;27.36;100285.95;117460;1183;21855;-60
2021/08/20 10:04:31;;;;;;;3.70;2.70;;;;;;;34.01;27.36;100284.92;117434;1182;23475;-67
2021/08/20 10:07:08;;;;;;;7.20;3.00;;;;;;;34.23;27.59;100278.81;117427;1185;24181;-66
2021/08/20 10:09:37;;;;;;;6.70;2.90;;;;;;;34.45;27.08;100274.33;117343;1183;24188;-59
2021/08/20 10:12:07;;;;;;;4.20;2.80;;;;;;;34.47;26.64;100271.04;117382;1183;24169;-67
2021/08/20 10:14:36;;;;;;;4.70;2.50;;;;;;;34.39;26.46;100270.56;117423;1183;22631;-59
2021/08/20 10:17:04;;;;;;;7.00;2.50;;;;;;;34.30;26.36;100271.50;117273;1186;21855;-60
2021/08/20 10:19:32;;;;;;;3.30;2.50;;;;;;;34.30;26.43;100272.58;117501;1185;21858;-61
2021/08/20 10:22:02;;;;;;;5.00;2.50;;;;;;;34.39;26.39;100269.73;117343;1182;23554;-61
2021/08/20 10:24:30;;;;;;;4.40;3.00;;;;;;;34.44;26.58;100268.07;117396;1185;21857;-57
2021/08/20 10:27:02;;;;;;;6.10;2.20;;;;;;;34.41;26.11;100266.71;117387;1184;23567;-65
2021/08/20 10:29:31;;;;;;;6.70;2.50;;;;;;;34.25;25.99;100267.58;117174;1183;22714;-59
2021/08/20 10:32:03;;;;;;;3.40;2.40;;;;;;;34.13;25.90;100273.61;117394;1182;22845;-66
2021/08/20 10:34:32;;;;;;;4.30;2.40;;;;;;;34.15;26.35;100270.61;117384;1183;24203;-60
2021/08/20 10:37:13;;;;;;;5.00;2.50;;;;;;;34.23;26.21;100265.39;117408;1180;24172;-66
2021/08/20 10:39:46;;;;;;;3.40;2.50;;;;;;;34.31;25.92;100264.94;117436;1179;24252;-59
2021/08/20 10:42:17;;;;;;;3.50;2.10;;;;;;;34.37;26.04;100264.82;117434;1182;23554;-69
2021/08/20 10:44:47;;;;;;;3.50;2.30;;;;;;;34.58;26.48;100258.95;117537;1182;21950;-60
2021/08/20 10:47:25;;;;;;;3.60;2.50;;;;;;;34.70;26.27;100260.08;117393;1185;22925;-60
2021/08/20 10:50:19;;;;;;;4.80;2.70;;;;;;;34.84;26.28;100255.23;117443;1182;23583;-66
2021/08/20 10:52:49;;;;;;;3.00;2.20;;;;;;;35.09;25.34;100248.14;117451;1185;21857;-65
2021/08/20 10:55:27;;;;;;;4.40;2.40;;;;;;;35.12;24.83;100250.86;117358;1186;21858;-69
2021/08/20 10:58:04;;;;;;;3.20;2.10;;;;;;;34.98;24.73;100248.15;117417;1182;21884;-69
2021/08/20 11:00:37;;;;;;;5.40;2.60;;;;;;;34.90;25.53;100249.26;117330;1182;21863;-66
2021/08/20 11:03:08;;;;;;;3.00;2.00;;;;;;;35.03;25.22;100252.91;117430;1180;23627;-71
2021/08/20 11:05:46;;;;;;;3.80;2.30;;;;;;;35.01;25.31;100248.39;117441;1184;21856;-59
2021/08/20 11:08:27;;;;;;;4.40;2.30;;;;;;;34.93;25.69;100249.48;117438;1185;21886;-57
2021/08/20 11:11:39;;;;;;;4.90;2.70;;;;;;;34.79;25.58;100245.98;117426;1185;23491;-57
2021/08/20 11:14:28;;;;;;;4.80;2.70;;;;;;;34.72;25.77;100247.91;117351;1183;23573;-61
2021/08/20 11:17:18;;;;;;;5.50;2.60;;;;;;;34.60;25.65;100252.80;117246;1186;23612;-71
2021/08/20 11:19:48;;;;;;;11.00;2.60;;;;;;;34.57;26.20;100249.85;117354;1182;22625;-61
2021/08/20 11:22:21;;;;;;;8.10;2.30;;;;;;;34.70;26.73;100248.49;117350;1184;23580;-71
2021/08/20 11:25:11;;;;;;;3.60;2.50;;;;;;;34.82;26.18;100254.61;117384;1184;21881;-67
2021/08/20 11:27:40;;;;;;;4.10;2.20;;;;;;;34.71;26.25;100249.48;117346;1185;21871;-71
2021/08/20 11:30:13;;;;;;;4.10;2.50;;;;;;;34.66;26.15;100248.09;117330;1183;23542;-58
2021/08/20 11:32:41;;;;;;;3.00;2.20;;;;;;;34.67;26.16;100245.71;117310;1184;22323;-74
2021/08/20 11:35:09;;;;;;;3.40;2.30;;;;;;;34.77;26.34;100245.52;117391;1183;24161;-66